Tune, Denmark
Current Conditions -  °F | °C
As of 5:20 PM on Sunday 21 Dec 2014 (Local Time) from EKRK Reporting Station
Light Rain Light Rain  
Wind Chill: 35°   Ceiling: 2300
Heat Index: 43°   Visibility: 3mi
Dew Point: 41°   Wind: 15mph
Humidity: 93%   Direction: 230°SW
Pressure: 29.83"   Gusts: NA
Location:  55.6°N, 12.18°E
Report Text: EKRK 211620Z AUTO 23013KT 5000NDV -RA FEW009/// SCT018///BKN023/// 06/05 Q1010
Loading
Personal Weather Stations






























Interactive Weather Map New forecast layout! Learn more

10-Day Weather Forecast

Advertisements
Track Severe Weather on mobile